sensor_id;sensor_type;location;lat;lon;timestamp;P1;durP1;ratioP1;P2;durP2;ratioP2
59042;SDS011;44826;51.596;5.624;2023-12-20T00:00:12;7.43;;;4.25;;
59042;SDS011;44826;51.596;5.624;2023-12-20T00:02:37;8.52;;;4.82;;
59042;SDS011;44826;51.596;5.624;2023-12-20T00:05:03;9.20;;;4.50;;
59042;SDS011;44826;51.596;5.624;2023-12-20T00:07:28;9.82;;;4.13;;
59042;SDS011;44826;51.596;5.624;2023-12-20T00:09:54;8.02;;;4.43;;
59042;SDS011;44826;51.596;5.624;2023-12-20T00:12:19;9.88;;;4.50;;
59042;SDS011;44826;51.596;5.624;2023-12-20T00:14:44;11.60;;;4.40;;
59042;SDS011;44826;51.596;5.624;2023-12-20T00:17:10;11.20;;;4.50;;
59042;SDS011;44826;51.596;5.624;2023-12-20T00:19:35;9.27;;;3.75;;
59042;SDS011;44826;51.596;5.624;2023-12-20T00:22:00;14.32;;;3.85;;
59042;SDS011;44826;51.596;5.624;2023-12-20T00:24:26;9.23;;;3.73;;
59042;SDS011;44826;51.596;5.624;2023-12-20T00:26:51;8.15;;;3.65;;
59042;SDS011;44826;51.596;5.624;2023-12-20T00:29:17;6.68;;;3.10;;
59042;SDS011;44826;51.596;5.624;2023-12-20T00:31:42;9.73;;;3.03;;
59042;SDS011;44826;51.596;5.624;2023-12-20T00:34:07;7.40;;;2.67;;
59042;SDS011;44826;51.596;5.624;2023-12-20T00:36:33;6.10;;;2.45;;
59042;SDS011;44826;51.596;5.624;2023-12-20T00:38:58;7.50;;;2.45;;
59042;SDS011;44826;51.596;5.624;2023-12-20T00:41:23;6.90;;;2.30;;
59042;SDS011;44826;51.596;5.624;2023-12-20T00:43:49;7.47;;;2.00;;
59042;SDS011;44826;51.596;5.624;2023-12-20T00:46:14;5.90;;;2.00;;
59042;SDS011;44826;51.596;5.624;2023-12-20T00:48:39;6.03;;;1.88;;
59042;SDS011;44826;51.596;5.624;2023-12-20T00:51:07;8.67;;;1.80;;
59042;SDS011;44826;51.596;5.624;2023-12-20T00:53:33;5.70;;;1.80;;
59042;SDS011;44826;51.596;5.624;2023-12-20T00:55:58;7.03;;;2.10;;
59042;SDS011;44826;51.596;5.624;2023-12-20T00:58:23;7.28;;;1.70;;
59042;SDS011;44826;51.596;5.624;2023-12-20T01:00:49;5.93;;;1.50;;
59042;SDS011;44826;51.596;5.624;2023-12-20T01:03:14;6.53;;;1.60;;
59042;SDS011;44826;51.596;5.624;2023-12-20T01:05:40;5.50;;;1.38;;
59042;SDS011;44826;51.596;5.624;2023-12-20T01:08:05;4.53;;;1.40;;
59042;SDS011;44826;51.596;5.624;2023-12-20T01:10:31;7.05;;;1.58;;
59042;SDS011;44826;51.596;5.624;2023-12-20T01:12:57;6.35;;;1.90;;
59042;SDS011;44826;51.596;5.624;2023-12-20T01:15:22;6.88;;;1.63;;
59042;SDS011;44826;51.596;5.624;2023-12-20T01:17:48;6.05;;;1.83;;
59042;SDS011;44826;51.596;5.624;2023-12-20T01:20:14;9.60;;;2.17;;
59042;SDS011;44826;51.596;5.624;2023-12-20T01:22:39;5.93;;;1.48;;
59042;SDS011;44826;51.596;5.624;2023-12-20T01:25:05;3.58;;;1.10;;
59042;SDS011;44826;51.596;5.624;2023-12-20T01:27:30;3.20;;;1.27;;
59042;SDS011;44826;51.596;5.624;2023-12-20T01:29:56;7.50;;;1.63;;
59042;SDS011;44826;51.596;5.624;2023-12-20T01:32:22;5.20;;;1.50;;
59042;SDS011;44826;51.596;5.624;2023-12-20T01:34:47;7.20;;;1.45;;
59042;SDS011;44826;51.596;5.624;2023-12-20T01:37:13;6.35;;;1.30;;
59042;SDS011;44826;51.596;5.624;2023-12-20T01:39:39;7.03;;;1.60;;
59042;SDS011;44826;51.596;5.624;2023-12-20T01:42:04;5.18;;;1.30;;
59042;SDS011;44826;51.596;5.624;2023-12-20T01:44:30;6.13;;;1.40;;
59042;SDS011;44826;51.596;5.624;2023-12-20T01:46:55;7.50;;;1.37;;
59042;SDS011;44826;51.596;5.624;2023-12-20T01:49:21;8.87;;;1.60;;
59042;SDS011;44826;51.596;5.624;2023-12-20T01:51:47;7.07;;;1.58;;
59042;SDS011;44826;51.596;5.624;2023-12-20T01:54:13;5.57;;;1.35;;
59042;SDS011;44826;51.596;5.624;2023-12-20T01:56:38;10.40;;;1.45;;
59042;SDS011;44826;51.596;5.624;2023-12-20T01:59:05;5.93;;;1.55;;
59042;SDS011;44826;51.596;5.624;2023-12-20T02:01:32;10.63;;;1.70;;
59042;SDS011;44826;51.596;5.624;2023-12-20T02:03:58;6.55;;;1.25;;
59042;SDS011;44826;51.596;5.624;2023-12-20T02:06:25;5.63;;;1.50;;
59042;SDS011;44826;51.596;5.624;2023-12-20T02:08:55;3.97;;;1.38;;
59042;SDS011;44826;51.596;5.624;2023-12-20T02:11:21;9.57;;;2.00;;
59042;SDS011;44826;51.596;5.624;2023-12-20T02:13:46;7.30;;;1.50;;
59042;SDS011;44826;51.596;5.624;2023-12-20T02:16:12;5.43;;;1.50;;
59042;SDS011;44826;51.596;5.624;2023-12-20T02:18:37;5.80;;;1.57;;
59042;SDS011;44826;51.596;5.624;2023-12-20T02:21:04;3.43;;;1.40;;
59042;SDS011;44826;51.596;5.624;2023-12-20T02:23:30;8.57;;;1.73;;
59042;SDS011;44826;51.596;5.624;2023-12-20T02:25:56;6.53;;;1.40;;
59042;SDS011;44826;51.596;5.624;2023-12-20T02:28:21;7.47;;;1.50;;
59042;SDS011;44826;51.596;5.624;2023-12-20T02:30:47;5.35;;;1.55;;
59042;SDS011;44826;51.596;5.624;2023-12-20T02:33:14;8.60;;;1.60;;
59042;SDS011;44826;51.596;5.624;2023-12-20T02:35:40;6.95;;;1.70;;
59042;SDS011;44826;51.596;5.624;2023-12-20T02:38:05;6.73;;;1.80;;
59042;SDS011;44826;51.596;5.624;2023-12-20T02:40:31;7.80;;;1.60;;
59042;SDS011;44826;51.596;5.624;2023-12-20T02:42:57;7.63;;;1.50;;
59042;SDS011;44826;51.596;5.624;2023-12-20T02:45:22;5.13;;;1.50;;
59042;SDS011;44826;51.596;5.624;2023-12-20T02:47:47;4.93;;;1.23;;
59042;SDS011;44826;51.596;5.624;2023-12-20T02:50:13;4.32;;;1.20;;
59042;SDS011;44826;51.596;5.624;2023-12-20T02:52:38;8.37;;;1.60;;
59042;SDS011;44826;51.596;5.624;2023-12-20T02:55:03;6.57;;;1.60;;
59042;SDS011;44826;51.596;5.624;2023-12-20T02:57:29;7.93;;;1.60;;
59042;SDS011;44826;51.596;5.624;2023-12-20T02:59:55;3.92;;;1.20;;
59042;SDS011;44826;51.596;5.624;2023-12-20T03:02:20;4.68;;;1.48;;
59042;SDS011;44826;51.596;5.624;2023-12-20T03:04:45;5.27;;;1.70;;
59042;SDS011;44826;51.596;5.624;2023-12-20T03:07:10;8.48;;;1.60;;
59042;SDS011;44826;51.596;5.624;2023-12-20T03:09:37;8.35;;;1.88;;
59042;SDS011;44826;51.596;5.624;2023-12-20T03:12:02;8.27;;;1.75;;
59042;SDS011;44826;51.596;5.624;2023-12-20T03:14:28;7.40;;;2.07;;
59042;SDS011;44826;51.596;5.624;2023-12-20T03:16:53;7.70;;;1.80;;
59042;SDS011;44826;51.596;5.624;2023-12-20T03:19:18;5.40;;;1.67;;
59042;SDS011;44826;51.596;5.624;2023-12-20T03:21:44;8.63;;;1.80;;
59042;SDS011;44826;51.596;5.624;2023-12-20T03:24:10;10.85;;;1.80;;
59042;SDS011;44826;51.596;5.624;2023-12-20T03:26:35;6.80;;;1.60;;
59042;SDS011;44826;51.596;5.624;2023-12-20T03:29:00;6.37;;;1.70;;
59042;SDS011;44826;51.596;5.624;2023-12-20T03:31:26;4.73;;;1.40;;
59042;SDS011;44826;51.596;5.624;2023-12-20T03:33:51;8.17;;;1.87;;
59042;SDS011;44826;51.596;5.624;2023-12-20T03:36:18;7.60;;;1.70;;
59042;SDS011;44826;51.596;5.624;2023-12-20T03:38:44;7.37;;;2.03;;
59042;SDS011;44826;51.596;5.624;2023-12-20T03:41:09;7.50;;;1.80;;
59042;SDS011;44826;51.596;5.624;2023-12-20T03:43:35;13.85;;;2.20;;
59042;SDS011;44826;51.596;5.624;2023-12-20T03:46:00;9.27;;;1.90;;
59042;SDS011;44826;51.596;5.624;2023-12-20T03:48:25;8.53;;;2.37;;
59042;SDS011;44826;51.596;5.624;2023-12-20T03:50:51;10.43;;;2.20;;
59042;SDS011;44826;51.596;5.624;2023-12-20T03:53:16;10.40;;;2.10;;
59042;SDS011;44826;51.596;5.624;2023-12-20T03:55:42;10.63;;;2.03;;
59042;SDS011;44826;51.596;5.624;2023-12-20T03:58:07;8.43;;;2.07;;
59042;SDS011;44826;51.596;5.624;2023-12-20T04:00:32;8.60;;;2.00;;
59042;SDS011;44826;51.596;5.624;2023-12-20T04:02:58;11.50;;;2.27;;
59042;SDS011;44826;51.596;5.624;2023-12-20T04:05:23;12.40;;;3.30;;
59042;SDS011;44826;51.596;5.624;2023-12-20T04:07:48;7.97;;;2.07;;
59042;SDS011;44826;51.596;5.624;2023-12-20T04:10:15;7.17;;;2.63;;
59042;SDS011;44826;51.596;5.624;2023-12-20T04:12:41;10.10;;;2.23;;
59042;SDS011;44826;51.596;5.624;2023-12-20T04:15:06;8.73;;;2.10;;
59042;SDS011;44826;51.596;5.624;2023-12-20T04:17:34;7.97;;;2.23;;
59042;SDS011;44826;51.596;5.624;2023-12-20T04:20:00;11.30;;;2.50;;
59042;SDS011;44826;51.596;5.624;2023-12-20T04:22:26;11.23;;;2.40;;
59042;SDS011;44826;51.596;5.624;2023-12-20T04:24:51;6.20;;;1.90;;
59042;SDS011;44826;51.596;5.624;2023-12-20T04:27:17;8.13;;;2.20;;
59042;SDS011;44826;51.596;5.624;2023-12-20T04:29:42;8.75;;;1.98;;
59042;SDS011;44826;51.596;5.624;2023-12-20T04:32:08;7.50;;;1.97;;
59042;SDS011;44826;51.596;5.624;2023-12-20T04:34:33;8.73;;;2.13;;
59042;SDS011;44826;51.596;5.624;2023-12-20T04:36:59;8.77;;;2.08;;
59042;SDS011;44826;51.596;5.624;2023-12-20T04:39:26;12.27;;;2.90;;
59042;SDS011;44826;51.596;5.624;2023-12-20T04:41:52;13.67;;;2.80;;
59042;SDS011;44826;51.596;5.624;2023-12-20T04:44:17;11.17;;;2.63;;
59042;SDS011;44826;51.596;5.624;2023-12-20T04:46:42;8.88;;;2.50;;
59042;SDS011;44826;51.596;5.624;2023-12-20T04:49:08;6.60;;;2.33;;
59042;SDS011;44826;51.596;5.624;2023-12-20T04:51:33;11.00;;;2.70;;
59042;SDS011;44826;51.596;5.624;2023-12-20T04:53:59;12.13;;;2.23;;
59042;SDS011;44826;51.596;5.624;2023-12-20T04:56:25;8.63;;;2.20;;
59042;SDS011;44826;51.596;5.624;2023-12-20T04:58:50;9.17;;;2.40;;
59042;SDS011;44826;51.596;5.624;2023-12-20T05:01:16;8.87;;;2.33;;
59042;SDS011;44826;51.596;5.624;2023-12-20T05:03:42;8.50;;;2.33;;
59042;SDS011;44826;51.596;5.624;2023-12-20T05:06:07;10.50;;;2.88;;
59042;SDS011;44826;51.596;5.624;2023-12-20T05:08:32;9.68;;;2.42;;
59042;SDS011;44826;51.596;5.624;2023-12-20T05:10:58;10.10;;;2.13;;
59042;SDS011;44826;51.596;5.624;2023-12-20T05:13:23;9.18;;;2.10;;
59042;SDS011;44826;51.596;5.624;2023-12-20T05:15:48;9.20;;;2.00;;
59042;SDS011;44826;51.596;5.624;2023-12-20T05:18:17;10.45;;;2.15;;
59042;SDS011;44826;51.596;5.624;2023-12-20T05:20:42;9.02;;;2.30;;
59042;SDS011;44826;51.596;5.624;2023-12-20T05:23:07;10.13;;;1.98;;
59042;SDS011;44826;51.596;5.624;2023-12-20T05:25:33;10.82;;;2.33;;
59042;SDS011;44826;51.596;5.624;2023-12-20T05:27:58;9.70;;;1.83;;
59042;SDS011;44826;51.596;5.624;2023-12-20T05:30:23;8.60;;;2.00;;
59042;SDS011;44826;51.596;5.624;2023-12-20T05:32:49;8.13;;;1.90;;
59042;SDS011;44826;51.596;5.624;2023-12-20T05:35:15;10.95;;;2.33;;
59042;SDS011;44826;51.596;5.624;2023-12-20T05:37:40;8.17;;;2.07;;
59042;SDS011;44826;51.596;5.624;2023-12-20T05:40:08;13.88;;;2.40;;
59042;SDS011;44826;51.596;5.624;2023-12-20T05:42:35;7.70;;;1.90;;
59042;SDS011;44826;51.596;5.624;2023-12-20T05:45:04;12.35;;;2.28;;
59042;SDS011;44826;51.596;5.624;2023-12-20T05:47:30;10.98;;;2.10;;
59042;SDS011;44826;51.596;5.624;2023-12-20T05:49:56;12.57;;;2.20;;
59042;SDS011;44826;51.596;5.624;2023-12-20T05:52:21;11.57;;;2.13;;
59042;SDS011;44826;51.596;5.624;2023-12-20T05:54:47;10.82;;;2.00;;
59042;SDS011;44826;51.596;5.624;2023-12-20T05:57:12;11.65;;;2.10;;
59042;SDS011;44826;51.596;5.624;2023-12-20T05:59:38;9.02;;;2.30;;
59042;SDS011;44826;51.596;5.624;2023-12-20T06:02:03;9.00;;;1.83;;
59042;SDS011;44826;51.596;5.624;2023-12-20T06:04:29;11.45;;;2.22;;
59042;SDS011;44826;51.596;5.624;2023-12-20T06:06:55;8.57;;;1.90;;
59042;SDS011;44826;51.596;5.624;2023-12-20T06:09:20;13.15;;;2.22;;
59042;SDS011;44826;51.596;5.624;2023-12-20T06:11:46;8.70;;;1.90;;
59042;SDS011;44826;51.596;5.624;2023-12-20T06:14:11;11.70;;;1.83;;
59042;SDS011;44826;51.596;5.624;2023-12-20T06:16:36;9.57;;;2.20;;
59042;SDS011;44826;51.596;5.624;2023-12-20T06:19:02;10.18;;;2.13;;
59042;SDS011;44826;51.596;5.624;2023-12-20T06:21:27;11.85;;;2.20;;
59042;SDS011;44826;51.596;5.624;2023-12-20T06:23:53;8.27;;;1.75;;
59042;SDS011;44826;51.596;5.624;2023-12-20T06:26:18;8.68;;;1.80;;
59042;SDS011;44826;51.596;5.624;2023-12-20T06:28:43;11.32;;;2.08;;
59042;SDS011;44826;51.596;5.624;2023-12-20T06:31:09;15.07;;;2.33;;
59042;SDS011;44826;51.596;5.624;2023-12-20T06:33:34;8.57;;;1.80;;
59042;SDS011;44826;51.596;5.624;2023-12-20T06:36:00;7.57;;;1.92;;
59042;SDS011;44826;51.596;5.624;2023-12-20T06:38:26;11.98;;;2.00;;
59042;SDS011;44826;51.596;5.624;2023-12-20T06:40:51;9.03;;;2.00;;
59042;SDS011;44826;51.596;5.624;2023-12-20T06:43:16;8.43;;;2.33;;
59042;SDS011;44826;51.596;5.624;2023-12-20T06:45:42;10.05;;;2.00;;
59042;SDS011;44826;51.596;5.624;2023-12-20T06:48:07;13.38;;;2.10;;
59042;SDS011;44826;51.596;5.624;2023-12-20T06:50:34;12.25;;;2.33;;
59042;SDS011;44826;51.596;5.624;2023-12-20T06:52:59;11.93;;;2.63;;
59042;SDS011;44826;51.596;5.624;2023-12-20T06:55:31;10.20;;;2.38;;
59042;SDS011;44826;51.596;5.624;2023-12-20T06:57:56;14.60;;;2.37;;
59042;SDS011;44826;51.596;5.624;2023-12-20T07:00:22;11.30;;;2.23;;
59042;SDS011;44826;51.596;5.624;2023-12-20T07:02:49;10.03;;;2.20;;
59042;SDS011;44826;51.596;5.624;2023-12-20T07:05:18;8.07;;;2.10;;
59042;SDS011;44826;51.596;5.624;2023-12-20T07:07:45;8.63;;;2.35;;
59042;SDS011;44826;51.596;5.624;2023-12-20T07:10:11;12.55;;;2.70;;
59042;SDS011;44826;51.596;5.624;2023-12-20T07:12:37;9.68;;;2.60;;
59042;SDS011;44826;51.596;5.624;2023-12-20T07:15:03;11.70;;;2.87;;
59042;SDS011;44826;51.596;5.624;2023-12-20T07:17:28;12.77;;;3.00;;
59042;SDS011;44826;51.596;5.624;2023-12-20T07:19:54;13.07;;;2.85;;
59042;SDS011;44826;51.596;5.624;2023-12-20T07:22:19;13.68;;;2.80;;
59042;SDS011;44826;51.596;5.624;2023-12-20T07:24:44;13.90;;;3.00;;
59042;SDS011;44826;51.596;5.624;2023-12-20T07:27:10;8.20;;;2.63;;
59042;SDS011;44826;51.596;5.624;2023-12-20T07:29:36;12.53;;;3.20;;
59042;SDS011;44826;51.596;5.624;2023-12-20T07:32:01;10.85;;;3.13;;
59042;SDS011;44826;51.596;5.624;2023-12-20T07:34:27;12.15;;;2.80;;
59042;SDS011;44826;51.596;5.624;2023-12-20T07:36:52;9.43;;;2.80;;
59042;SDS011;44826;51.596;5.624;2023-12-20T07:39:18;9.43;;;2.60;;
59042;SDS011;44826;51.596;5.624;2023-12-20T07:41:43;7.30;;;2.63;;
59042;SDS011;44826;51.596;5.624;2023-12-20T07:44:09;13.27;;;3.10;;
59042;SDS011;44826;51.596;5.624;2023-12-20T07:46:35;15.20;;;2.67;;
59042;SDS011;44826;51.596;5.624;2023-12-20T07:49:03;11.93;;;2.70;;
59042;SDS011;44826;51.596;5.624;2023-12-20T07:51:28;11.75;;;3.30;;
59042;SDS011;44826;51.596;5.624;2023-12-20T07:53:54;8.87;;;2.73;;
59042;SDS011;44826;51.596;5.624;2023-12-20T07:56:22;11.02;;;2.78;;
59042;SDS011;44826;51.596;5.624;2023-12-20T07:58:47;13.48;;;3.08;;
59042;SDS011;44826;51.596;5.624;2023-12-20T08:01:15;12.23;;;2.83;;
59042;SDS011;44826;51.596;5.624;2023-12-20T08:03:41;9.63;;;2.40;;
59042;SDS011;44826;51.596;5.624;2023-12-20T08:06:06;14.63;;;2.53;;
59042;SDS011;44826;51.596;5.624;2023-12-20T08:08:32;10.57;;;2.43;;
59042;SDS011;44826;51.596;5.624;2023-12-20T08:10:57;13.07;;;2.50;;
59042;SDS011;44826;51.596;5.624;2023-12-20T08:13:25;8.10;;;2.20;;
59042;SDS011;44826;51.596;5.624;2023-12-20T08:15:51;12.27;;;2.97;;
59042;SDS011;44826;51.596;5.624;2023-12-20T08:18:17;10.38;;;2.63;;
59042;SDS011;44826;51.596;5.624;2023-12-20T08:20:42;13.40;;;2.40;;
59042;SDS011;44826;51.596;5.624;2023-12-20T08:23:08;8.00;;;2.70;;
59042;SDS011;44826;51.596;5.624;2023-12-20T08:25:41;10.10;;;2.20;;
59042;SDS011;44826;51.596;5.624;2023-12-20T08:28:06;12.63;;;2.87;;
59042;SDS011;44826;51.596;5.624;2023-12-20T08:30:32;10.85;;;2.38;;
59042;SDS011;44826;51.596;5.624;2023-12-20T08:33:00;14.43;;;2.60;;
59042;SDS011;44826;51.596;5.624;2023-12-20T08:35:27;11.82;;;2.38;;
59042;SDS011;44826;51.596;5.624;2023-12-20T08:37:53;12.52;;;2.20;;
59042;SDS011;44826;51.596;5.624;2023-12-20T08:40:18;10.10;;;2.28;;
59042;SDS011;44826;51.596;5.624;2023-12-20T08:42:46;10.77;;;3.10;;
59042;SDS011;44826;51.596;5.624;2023-12-20T08:45:11;8.45;;;2.15;;
59042;SDS011;44826;51.596;5.624;2023-12-20T08:47:37;14.77;;;3.00;;
59042;SDS011;44826;51.596;5.624;2023-12-20T08:50:02;9.50;;;2.30;;
59042;SDS011;44826;51.596;5.624;2023-12-20T08:52:28;12.10;;;2.30;;
59042;SDS011;44826;51.596;5.624;2023-12-20T08:54:57;10.60;;;2.78;;
59042;SDS011;44826;51.596;5.624;2023-12-20T08:57:22;12.48;;;2.47;;
59042;SDS011;44826;51.596;5.624;2023-12-20T08:59:49;12.00;;;2.70;;
59042;SDS011;44826;51.596;5.624;2023-12-20T09:02:20;13.60;;;2.88;;
59042;SDS011;44826;51.596;5.624;2023-12-20T09:04:45;14.48;;;2.60;;
59042;SDS011;44826;51.596;5.624;2023-12-20T09:07:23;9.93;;;3.35;;
59042;SDS011;44826;51.596;5.624;2023-12-20T09:09:52;13.65;;;2.53;;
59042;SDS011;44826;51.596;5.624;2023-12-20T09:12:18;12.75;;;2.47;;
59042;SDS011;44826;51.596;5.624;2023-12-20T09:14:44;11.43;;;2.40;;
59042;SDS011;44826;51.596;5.624;2023-12-20T09:17:10;13.00;;;2.35;;
59042;SDS011;44826;51.596;5.624;2023-12-20T09:19:39;13.90;;;3.00;;
59042;SDS011;44826;51.596;5.624;2023-12-20T09:22:05;12.27;;;2.70;;
59042;SDS011;44826;51.596;5.624;2023-12-20T09:24:52;9.13;;;2.35;;
59042;SDS011;44826;51.596;5.624;2023-12-20T09:27:19;10.50;;;2.50;;
59042;SDS011;44826;51.596;5.624;2023-12-20T09:29:44;11.18;;;2.80;;
59042;SDS011;44826;51.596;5.624;2023-12-20T09:32:10;7.63;;;2.20;;
59042;SDS011;44826;51.596;5.624;2023-12-20T09:34:35;11.05;;;2.50;;
59042;SDS011;44826;51.596;5.624;2023-12-20T09:37:04;8.90;;;2.25;;
59042;SDS011;44826;51.596;5.624;2023-12-20T09:44:24;11.35;;;2.92;;
59042;SDS011;44826;51.596;5.624;2023-12-20T09:46:50;14.18;;;2.90;;
59042;SDS011;44826;51.596;5.624;2023-12-20T09:49:18;12.05;;;2.60;;
59042;SDS011;44826;51.596;5.624;2023-12-20T09:54:36;9.80;;;2.50;;
59042;SDS011;44826;51.596;5.624;2023-12-20T09:57:06;10.95;;;2.20;;
59042;SDS011;44826;51.596;5.624;2023-12-20T09:59:31;13.52;;;3.10;;
59042;SDS011;44826;51.596;5.624;2023-12-20T10:01:56;10.50;;;2.38;;
59042;SDS011;44826;51.596;5.624;2023-12-20T10:04:22;14.57;;;2.40;;
59042;SDS011;44826;51.596;5.624;2023-12-20T10:06:48;6.15;;;2.05;;
59042;SDS011;44826;51.596;5.624;2023-12-20T10:09:15;12.00;;;2.90;;
59042;SDS011;44826;51.596;5.624;2023-12-20T10:11:43;9.88;;;1.88;;
59042;SDS011;44826;51.596;5.624;2023-12-20T10:14:10;10.60;;;2.75;;
59042;SDS011;44826;51.596;5.624;2023-12-20T10:16:36;14.32;;;2.67;;
59042;SDS011;44826;51.596;5.624;2023-12-20T10:19:04;10.95;;;2.15;;
59042;SDS011;44826;51.596;5.624;2023-12-20T10:21:31;11.50;;;2.20;;
59042;SDS011;44826;51.596;5.624;2023-12-20T10:23:57;13.07;;;2.15;;
59042;SDS011;44826;51.596;5.624;2023-12-20T10:26:23;9.57;;;1.73;;
59042;SDS011;44826;51.596;5.624;2023-12-20T10:28:59;8.60;;;2.00;;
59042;SDS011;44826;51.596;5.624;2023-12-20T10:31:33;12.45;;;1.90;;
59042;SDS011;44826;51.596;5.624;2023-12-20T10:39:23;10.85;;;2.17;;
59042;SDS011;44826;51.596;5.624;2023-12-20T10:41:49;12.50;;;2.45;;
59042;SDS011;44826;51.596;5.624;2023-12-20T10:44:14;11.00;;;2.13;;
59042;SDS011;44826;51.596;5.624;2023-12-20T10:46:41;6.97;;;1.92;;
59042;SDS011;44826;51.596;5.624;2023-12-20T10:49:15;11.20;;;1.90;;
59042;SDS011;44826;51.596;5.624;2023-12-20T10:51:42;10.45;;;1.90;;
59042;SDS011;44826;51.596;5.624;2023-12-20T10:54:09;8.45;;;2.20;;
59042;SDS011;44826;51.596;5.624;2023-12-20T10:59:43;7.85;;;2.05;;
59042;SDS011;44826;51.596;5.624;2023-12-20T11:02:15;10.00;;;2.08;;
59042;SDS011;44826;51.596;5.624;2023-12-20T11:07:52;7.15;;;2.10;;
59042;SDS011;44826;51.596;5.624;2023-12-20T11:10:30;10.43;;;1.77;;
59042;SDS011;44826;51.596;5.624;2023-12-20T11:13:26;8.43;;;2.08;;
59042;SDS011;44826;51.596;5.624;2023-12-20T11:16:03;10.57;;;2.00;;
59042;SDS011;44826;51.596;5.624;2023-12-20T11:18:29;13.75;;;2.20;;
59042;SDS011;44826;51.596;5.624;2023-12-20T11:21:00;8.90;;;1.98;;
59042;SDS011;44826;51.596;5.624;2023-12-20T11:23:35;9.70;;;2.30;;
59042;SDS011;44826;51.596;5.624;2023-12-20T11:26:01;10.32;;;2.22;;
59042;SDS011;44826;51.596;5.624;2023-12-20T11:28:28;10.98;;;2.10;;
59042;SDS011;44826;51.596;5.624;2023-12-20T11:30:57;14.20;;;2.45;;
59042;SDS011;44826;51.596;5.624;2023-12-20T11:33:25;13.93;;;2.25;;
59042;SDS011;44826;51.596;5.624;2023-12-20T11:36:01;8.32;;;2.05;;
59042;SDS011;44826;51.596;5.624;2023-12-20T11:38:28;9.70;;;2.33;;
59042;SDS011;44826;51.596;5.624;2023-12-20T11:41:01;8.45;;;1.88;;
59042;SDS011;44826;51.596;5.624;2023-12-20T11:46:36;13.70;;;2.95;;
59042;SDS011;44826;51.596;5.624;2023-12-20T11:49:13;10.63;;;1.98;;
59042;SDS011;44826;51.596;5.624;2023-12-20T11:51:41;9.23;;;2.30;;
59042;SDS011;44826;51.596;5.624;2023-12-20T11:54:09;8.53;;;2.10;;
59042;SDS011;44826;51.596;5.624;2023-12-20T11:56:36;9.18;;;2.00;;
59042;SDS011;44826;51.596;5.624;2023-12-20T11:59:04;10.20;;;2.20;;
59042;SDS011;44826;51.596;5.624;2023-12-20T12:01:29;9.52;;;2.00;;
59042;SDS011;44826;51.596;5.624;2023-12-20T12:04:06;11.32;;;2.45;;
59042;SDS011;44826;51.596;5.624;2023-12-20T12:06:32;12.13;;;2.10;;
59042;SDS011;44826;51.596;5.624;2023-12-20T12:08:58;9.70;;;2.67;;
59042;SDS011;44826;51.596;5.624;2023-12-20T12:11:24;11.40;;;2.33;;
59042;SDS011;44826;51.596;5.624;2023-12-20T12:14:07;7.35;;;2.20;;
59042;SDS011;44826;51.596;5.624;2023-12-20T12:16:49;8.98;;;2.08;;
59042;SDS011;44826;51.596;5.624;2023-12-20T12:19:27;8.18;;;2.00;;
59042;SDS011;44826;51.596;5.624;2023-12-20T12:22:16;9.80;;;2.20;;
59042;SDS011;44826;51.596;5.624;2023-12-20T12:24:45;11.25;;;2.10;;
59042;SDS011;44826;51.596;5.624;2023-12-20T12:27:15;13.20;;;3.00;;
59042;SDS011;44826;51.596;5.624;2023-12-20T12:29:41;12.65;;;2.28;;
59042;SDS011;44826;51.596;5.624;2023-12-20T12:32:31;19.58;;;2.45;;
59042;SDS011;44826;51.596;5.624;2023-12-20T12:35:05;14.82;;;2.45;;
59042;SDS011;44826;51.596;5.624;2023-12-20T12:40:55;9.52;;;2.13;;
59042;SDS011;44826;51.596;5.624;2023-12-20T12:43:30;10.50;;;2.00;;
59042;SDS011;44826;51.596;5.624;2023-12-20T12:45:56;9.77;;;2.28;;
59042;SDS011;44826;51.596;5.624;2023-12-20T12:48:21;13.10;;;2.45;;
59042;SDS011;44826;51.596;5.624;2023-12-20T12:50:47;9.60;;;2.28;;
59042;SDS011;44826;51.596;5.624;2023-12-20T12:53:13;9.63;;;2.80;;
59042;SDS011;44826;51.596;5.624;2023-12-20T12:55:41;9.73;;;1.95;;
59042;SDS011;44826;51.596;5.624;2023-12-20T12:58:06;9.90;;;2.20;;
59042;SDS011;44826;51.596;5.624;2023-12-20T13:00:32;6.03;;;1.85;;
59042;SDS011;44826;51.596;5.624;2023-12-20T13:06:02;8.55;;;1.98;;
59042;SDS011;44826;51.596;5.624;2023-12-20T13:08:30;11.48;;;2.00;;
59042;SDS011;44826;51.596;5.624;2023-12-20T13:11:06;10.95;;;2.42;;
59042;SDS011;44826;51.596;5.624;2023-12-20T13:13:55;10.88;;;2.33;;
59042;SDS011;44826;51.596;5.624;2023-12-20T13:16:20;13.15;;;2.67;;
59042;SDS011;44826;51.596;5.624;2023-12-20T13:21:45;11.57;;;2.20;;
59042;SDS011;44826;51.596;5.624;2023-12-20T13:24:10;11.05;;;2.17;;
59042;SDS011;44826;51.596;5.624;2023-12-20T13:26:36;9.00;;;2.20;;
59042;SDS011;44826;51.596;5.624;2023-12-20T13:34:23;13.60;;;2.10;;
59042;SDS011;44826;51.596;5.624;2023-12-20T13:36:51;11.27;;;2.20;;
59042;SDS011;44826;51.596;5.624;2023-12-20T13:39:16;10.60;;;2.15;;
59042;SDS011;44826;51.596;5.624;2023-12-20T13:41:43;11.45;;;2.50;;
59042;SDS011;44826;51.596;5.624;2023-12-20T13:47:02;7.65;;;2.08;;
59042;SDS011;44826;51.596;5.624;2023-12-20T13:49:38;7.72;;;2.15;;
59042;SDS011;44826;51.596;5.624;2023-12-20T14:01:15;15.40;;;2.85;;
59042;SDS011;44826;51.596;5.624;2023-12-20T14:03:52;12.18;;;2.45;;
59042;SDS011;44826;51.596;5.624;2023-12-20T14:06:26;10.50;;;2.40;;
59042;SDS011;44826;51.596;5.624;2023-12-20T14:12:26;10.40;;;2.58;;
59042;SDS011;44826;51.596;5.624;2023-12-20T14:14:51;13.68;;;2.55;;
59042;SDS011;44826;51.596;5.624;2023-12-20T14:17:19;15.43;;;2.95;;
59042;SDS011;44826;51.596;5.624;2023-12-20T14:19:45;10.60;;;2.95;;
59042;SDS011;44826;51.596;5.624;2023-12-20T14:22:20;8.70;;;2.70;;
59042;SDS011;44826;51.596;5.624;2023-12-20T14:24:48;12.43;;;2.75;;
59042;SDS011;44826;51.596;5.624;2023-12-20T14:27:14;11.95;;;2.25;;
59042;SDS011;44826;51.596;5.624;2023-12-20T14:29:48;9.30;;;2.55;;
59042;SDS011;44826;51.596;5.624;2023-12-20T14:38:03;13.52;;;3.08;;
59042;SDS011;44826;51.596;5.624;2023-12-20T14:40:28;12.27;;;2.78;;
59042;SDS011;44826;51.596;5.624;2023-12-20T14:42:56;11.63;;;3.00;;
59042;SDS011;44826;51.596;5.624;2023-12-20T14:46:02;13.13;;;2.55;;
59042;SDS011;44826;51.596;5.624;2023-12-20T14:48:53;7.72;;;2.20;;
59042;SDS011;44826;51.596;5.624;2023-12-20T14:51:21;12.63;;;2.80;;
59042;SDS011;44826;51.596;5.624;2023-12-20T14:53:46;12.02;;;2.85;;
59042;SDS011;44826;51.596;5.624;2023-12-20T14:56:17;12.23;;;2.92;;
59042;SDS011;44826;51.596;5.624;2023-12-20T14:58:45;17.08;;;2.60;;
59042;SDS011;44826;51.596;5.624;2023-12-20T15:01:15;11.38;;;2.65;;
59042;SDS011;44826;51.596;5.624;2023-12-20T15:06:39;12.38;;;2.88;;
59042;SDS011;44826;51.596;5.624;2023-12-20T15:09:04;10.07;;;2.58;;
59042;SDS011;44826;51.596;5.624;2023-12-20T15:11:37;13.27;;;3.28;;
59042;SDS011;44826;51.596;5.624;2023-12-20T15:14:02;9.55;;;2.50;;
59042;SDS011;44826;51.596;5.624;2023-12-20T15:16:56;11.02;;;3.13;;
59042;SDS011;44826;51.596;5.624;2023-12-20T15:19:21;9.65;;;2.78;;
59042;SDS011;44826;51.596;5.624;2023-12-20T15:21:47;13.25;;;3.55;;
59042;SDS011;44826;51.596;5.624;2023-12-20T15:24:15;13.25;;;3.42;;
59042;SDS011;44826;51.596;5.624;2023-12-20T15:26:51;9.93;;;2.88;;
59042;SDS011;44826;51.596;5.624;2023-12-20T15:29:16;10.90;;;3.80;;
59042;SDS011;44826;51.596;5.624;2023-12-20T15:32:00;8.32;;;2.90;;
59042;SDS011;44826;51.596;5.624;2023-12-20T15:34:39;10.75;;;3.22;;
59042;SDS011;44826;51.596;5.624;2023-12-20T15:40:18;9.25;;;3.03;;
59042;SDS011;44826;51.596;5.624;2023-12-20T15:42:44;8.88;;;2.72;;
59042;SDS011;44826;51.596;5.624;2023-12-20T15:48:14;13.23;;;3.00;;